createdAt,value
2017-07-14T00:00:52.974Z,9.3
2017-07-14T00:02:11.623Z,9.3
2017-07-14T00:03:30.317Z,9.3
2017-07-14T00:04:48.993Z,9.3
2017-07-14T00:06:07.641Z,9.3
2017-07-14T00:07:26.297Z,9.2
2017-07-14T00:08:44.959Z,9.2
2017-07-14T00:10:03.608Z,9.2
2017-07-14T00:11:22.329Z,9.2
2017-07-14T00:12:40.984Z,9.2
2017-07-14T00:13:59.632Z,9.2
2017-07-14T00:15:18.294Z,9.2
2017-07-14T00:16:36.954Z,9.1
2017-07-14T00:17:55.603Z,9.1
2017-07-14T00:19:14.268Z,9.1
2017-07-14T00:20:32.925Z,9.2
2017-07-14T00:21:51.599Z,9.2
2017-07-14T00:23:10.301Z,9.2
2017-07-14T00:24:29.007Z,9.2
2017-07-14T00:25:47.691Z,9.2
2017-07-14T00:27:06.356Z,9.2
2017-07-14T00:28:25.015Z,9.3
2017-07-14T00:29:43.666Z,9.3
2017-07-14T00:31:02.385Z,9.3
2017-07-14T00:32:21.034Z,9.4
2017-07-14T00:33:39.686Z,9.4
2017-07-14T00:34:58.363Z,9.5
2017-07-14T00:36:17.010Z,9.5
2017-07-14T00:37:35.678Z,9.6
2017-07-14T00:38:54.333Z,9.6
2017-07-14T00:40:13.034Z,9.6
2017-07-14T00:41:31.680Z,9.5
2017-07-14T00:42:50.330Z,9.5
2017-07-14T00:44:09.013Z,9.5
2017-07-14T00:45:27.709Z,9.5
2017-07-14T00:46:46.368Z,9.5
2017-07-14T00:48:05.038Z,9.4
2017-07-14T00:49:23.691Z,9.4
2017-07-14T00:50:42.396Z,9.3
2017-07-14T00:52:01.087Z,9.3
2017-07-14T00:53:19.741Z,9.3
2017-07-14T00:54:38.398Z,9.3
2017-07-14T00:55:57.083Z,9.2
2017-07-14T00:57:15.736Z,9.2
2017-07-14T00:58:34.414Z,9.2
2017-07-14T00:59:53.116Z,9.2
2017-07-14T01:01:11.762Z,9.2
2017-07-14T01:02:30.414Z,9.2
2017-07-14T01:03:49.107Z,9.2
2017-07-14T01:05:07.802Z,9.2
2017-07-14T01:06:26.502Z,9.2
2017-07-14T01:07:45.157Z,9.2
2017-07-14T01:09:03.850Z,9.2
2017-07-14T01:10:22.546Z,9.2
2017-07-14T01:11:41.196Z,9.2
2017-07-14T01:12:59.843Z,9.2
2017-07-14T01:14:18.558Z,9.2
2017-07-14T01:15:37.246Z,9.1
2017-07-14T01:16:55.940Z,9
2017-07-14T01:18:14.651Z,9
2017-07-14T01:19:33.330Z,9
2017-07-14T01:20:51.977Z,9
2017-07-14T01:22:10.694Z,9
2017-07-14T01:23:29.342Z,9
2017-07-14T01:24:48.000Z,9.1
2017-07-14T01:26:06.645Z,9.1
2017-07-14T01:27:25.350Z,9
2017-07-14T01:28:44.046Z,9
2017-07-14T01:30:02.698Z,9
2017-07-14T01:31:21.341Z,9
2017-07-14T01:32:39.992Z,9
2017-07-14T01:33:58.639Z,9
2017-07-14T01:35:17.321Z,9
2017-07-14T01:36:35.976Z,8.9
2017-07-14T01:37:54.683Z,8.9
2017-07-14T01:39:13.338Z,8.9
2017-07-14T01:40:32.034Z,8.9
2017-07-14T01:41:50.682Z,8.8
2017-07-14T01:43:09.332Z,8.8
2017-07-14T01:44:28.035Z,8.8
2017-07-14T01:45:46.703Z,8.7
2017-07-14T01:47:05.373Z,8.7
2017-07-14T01:48:24.052Z,8.7
2017-07-14T01:49:42.701Z,8.6
2017-07-14T01:51:01.368Z,8.6
2017-07-14T01:52:20.019Z,8.6
2017-07-14T01:53:38.686Z,8.6
2017-07-14T01:54:57.394Z,8.6
2017-07-14T01:56:16.078Z,8.6
2017-07-14T01:57:34.727Z,8.6
2017-07-14T01:58:53.408Z,8.6
2017-07-14T02:00:12.053Z,8.6
2017-07-14T02:01:30.722Z,8.6
2017-07-14T02:02:49.410Z,8.5
2017-07-14T02:04:08.056Z,8.4
2017-07-14T02:05:26.714Z,8.4
2017-07-14T02:06:45.383Z,8.3
2017-07-14T02:08:04.061Z,8.3
2017-07-14T02:09:22.731Z,8.3
2017-07-14T02:10:41.383Z,8.2
2017-07-14T02:12:00.047Z,8.2
2017-07-14T02:13:18.749Z,8.1
2017-07-14T02:14:37.447Z,8.1
2017-07-14T02:15:56.110Z,8.1
2017-07-14T02:17:14.820Z,8.2
2017-07-14T02:18:33.524Z,8.2
2017-07-14T02:19:52.186Z,8.3
2017-07-14T02:21:10.838Z,8.3
2017-07-14T02:22:29.504Z,8.4
2017-07-14T02:23:48.190Z,8.4
2017-07-14T02:25:06.864Z,8.4
2017-07-14T02:26:25.554Z,8.5
2017-07-14T02:27:44.223Z,8.5
2017-07-14T02:29:02.871Z,8.5
2017-07-14T02:30:21.546Z,8.5
2017-07-14T02:31:40.208Z,8.5
2017-07-14T02:32:58.913Z,8.5
2017-07-14T02:34:17.556Z,8.5
2017-07-14T02:35:36.219Z,8.5
2017-07-14T02:36:54.866Z,8.4
2017-07-14T02:38:13.561Z,8.3
2017-07-14T02:39:32.255Z,8.3
2017-07-14T02:40:50.924Z,8.3
2017-07-14T02:42:09.568Z,8.2
2017-07-14T02:43:28.224Z,8.2
2017-07-14T02:44:46.878Z,8.1
2017-07-14T02:46:05.553Z,8.1
2017-07-14T02:47:24.207Z,8
2017-07-14T02:48:42.882Z,8
2017-07-14T02:50:01.542Z,8
2017-07-14T02:51:20.245Z,8
2017-07-14T02:52:38.972Z,8
2017-07-14T02:53:57.631Z,8
2017-07-14T02:55:16.315Z,8
2017-07-14T02:56:34.970Z,7.9
2017-07-14T02:57:53.613Z,7.9
2017-07-14T02:59:12.338Z,7.8
2017-07-14T03:00:30.981Z,7.8
2017-07-14T03:01:49.687Z,7.8
2017-07-14T03:03:08.392Z,7.8
2017-07-14T03:04:27.055Z,7.7
2017-07-14T03:05:45.748Z,7.7
2017-07-14T03:07:04.392Z,7.7
2017-07-14T03:08:23.045Z,7.6
2017-07-14T03:09:41.710Z,7.6
2017-07-14T03:11:00.356Z,7.6
2017-07-14T03:12:19.079Z,7.6
2017-07-14T03:13:37.731Z,7.6
2017-07-14T03:14:56.402Z,7.6
2017-07-14T03:16:15.051Z,7.5
2017-07-14T03:17:33.697Z,7.5
2017-07-14T03:18:52.408Z,7.5
2017-07-14T03:20:11.095Z,7.5
2017-07-14T03:21:29.746Z,7.5
2017-07-14T03:22:48.397Z,7.6
2017-07-14T03:24:07.073Z,7.7
2017-07-14T03:25:25.741Z,7.8
2017-07-14T03:26:44.399Z,7.9
2017-07-14T03:28:03.054Z,8
2017-07-14T03:29:21.706Z,8
2017-07-14T03:30:40.363Z,8
2017-07-14T03:31:59.051Z,8
2017-07-14T03:33:17.694Z,8.1
2017-07-14T03:34:36.385Z,8.1
2017-07-14T03:35:55.069Z,8.2
2017-07-14T03:37:13.715Z,8.2
2017-07-14T03:38:32.395Z,8.2
2017-07-14T03:39:51.044Z,8.3
2017-07-14T03:41:09.708Z,8.2
2017-07-14T03:42:28.358Z,8.2
2017-07-14T03:43:47.013Z,8.1
2017-07-14T03:45:05.666Z,8.1
2017-07-14T03:46:24.345Z,8.1
2017-07-14T03:47:43.000Z,8.1
2017-07-14T03:49:01.650Z,8.1
2017-07-14T03:50:20.318Z,8.1
2017-07-14T03:51:39.021Z,8.1
2017-07-14T03:52:57.676Z,8.1
2017-07-14T03:54:16.340Z,8.2
2017-07-14T03:55:35.015Z,8.3
2017-07-14T03:56:53.687Z,8.3
2017-07-14T03:58:12.378Z,8.3
2017-07-14T03:59:31.048Z,8.4
2017-07-14T04:00:49.691Z,8.4
2017-07-14T04:02:08.356Z,8.5
2017-07-14T04:03:27.029Z,8.5
2017-07-14T04:04:45.673Z,8.6
2017-07-14T04:06:04.324Z,8.7
2017-07-14T04:07:22.976Z,8.9
2017-07-14T04:08:41.623Z,9
2017-07-14T04:10:00.333Z,9.1
2017-07-14T04:11:19.018Z,9.1
2017-07-14T04:12:37.677Z,9.1
2017-07-14T04:13:56.323Z,9.1
2017-07-14T04:15:15.027Z,9
2017-07-14T04:16:33.681Z,9
2017-07-14T04:17:52.379Z,9
2017-07-14T04:19:11.024Z,9.1
2017-07-14T04:20:29.702Z,9.2
2017-07-14T04:21:48.345Z,9.2
2017-07-14T04:23:07.005Z,9.3
2017-07-14T04:24:25.698Z,9.3
2017-07-14T04:25:44.404Z,9.4
2017-07-14T04:27:03.060Z,9.5
2017-07-14T04:28:21.739Z,9.5
2017-07-14T04:29:40.419Z,9.6
2017-07-14T04:30:59.119Z,9.7
2017-07-14T04:32:17.773Z,9.9
2017-07-14T04:33:36.457Z,10
2017-07-14T04:34:55.122Z,10.1
2017-07-14T04:36:13.803Z,10.2
2017-07-14T04:37:32.466Z,10.3
2017-07-14T04:38:51.201Z,10.3
2017-07-14T04:40:09.873Z,10.4
2017-07-14T04:41:28.562Z,10.5
2017-07-14T04:42:47.229Z,10.6
2017-07-14T04:44:05.904Z,10.7
2017-07-14T04:45:24.618Z,10.8
2017-07-14T04:46:43.295Z,10.9
2017-07-14T04:48:01.968Z,10.9
2017-07-14T04:49:20.699Z,10.9
2017-07-14T04:50:39.405Z,10.9
2017-07-14T04:51:58.108Z,10.9
2017-07-14T04:53:16.803Z,11
2017-07-14T04:54:35.496Z,11
2017-07-14T04:55:54.177Z,11
2017-07-14T04:57:12.851Z,11
2017-07-14T04:58:31.554Z,11
2017-07-14T04:59:50.277Z,11
2017-07-14T05:01:09.001Z,11.1
2017-07-14T05:02:27.683Z,11.1
2017-07-14T05:03:46.352Z,11.2
2017-07-14T05:05:05.041Z,11.3
2017-07-14T05:06:23.704Z,11.5
2017-07-14T05:07:42.413Z,11.7
2017-07-14T05:09:01.085Z,11.8
2017-07-14T05:10:19.775Z,11.9
2017-07-14T05:11:38.433Z,11.9
2017-07-14T05:12:57.106Z,12
2017-07-14T05:14:15.848Z,11.9
2017-07-14T05:15:34.563Z,11.9
2017-07-14T05:16:53.271Z,11.8
2017-07-14T05:18:11.968Z,11.7
2017-07-14T05:19:30.683Z,11.5
2017-07-14T05:20:49.371Z,11.3
2017-07-14T05:22:08.041Z,11.2
2017-07-14T05:23:26.701Z,11.1
2017-07-14T05:24:45.369Z,11
2017-07-14T05:26:04.086Z,11.1
2017-07-14T05:27:22.750Z,11.2
2017-07-14T05:28:41.412Z,11.3
2017-07-14T05:30:00.072Z,11.3
2017-07-14T05:31:18.761Z,11.4
2017-07-14T05:32:37.434Z,11.6
2017-07-14T05:33:56.103Z,11.7
2017-07-14T05:35:14.783Z,11.7
2017-07-14T05:36:33.476Z,11.7
2017-07-14T05:37:52.185Z,11.7
2017-07-14T05:39:10.854Z,11.7
2017-07-14T05:40:29.566Z,11.7
2017-07-14T05:41:48.249Z,11.7
2017-07-14T05:43:06.914Z,11.7
2017-07-14T05:44:25.584Z,11.7
2017-07-14T05:45:44.254Z,11.8
2017-07-14T05:47:02.978Z,11.8
2017-07-14T05:48:21.656Z,11.9
2017-07-14T05:49:40.361Z,11.9
2017-07-14T05:50:59.058Z,12
2017-07-14T05:52:17.741Z,12.1
2017-07-14T05:53:36.404Z,12.2
2017-07-14T05:54:55.077Z,12.2
2017-07-14T05:56:13.747Z,12.2
2017-07-14T05:57:32.451Z,12.3
2017-07-14T05:58:51.133Z,12.4
2017-07-14T06:00:09.802Z,12.4
2017-07-14T06:01:28.507Z,12.5
2017-07-14T06:02:47.242Z,12.5
2017-07-14T06:04:05.958Z,12.6
2017-07-14T06:05:24.653Z,12.7
2017-07-14T06:06:43.334Z,12.7
2017-07-14T06:08:02.021Z,12.8
2017-07-14T06:09:20.694Z,12.9
2017-07-14T06:10:39.390Z,13
2017-07-14T06:11:58.062Z,13.1
2017-07-14T06:13:16.742Z,13.2
2017-07-14T06:14:35.439Z,13.3
2017-07-14T06:15:54.131Z,13.4
2017-07-14T06:17:12.800Z,13.4
2017-07-14T06:18:31.475Z,13.6
2017-07-14T06:19:50.145Z,13.6
2017-07-14T06:21:08.867Z,13.8
2017-07-14T06:22:27.559Z,13.9
2017-07-14T06:23:46.293Z,14
2017-07-14T06:25:04.885Z,14.2
2017-07-14T06:26:23.570Z,14.4
2017-07-14T06:27:42.262Z,14.6
2017-07-14T06:29:00.979Z,14.9
2017-07-14T06:30:19.648Z,15.2
2017-07-14T06:31:38.351Z,15.5
2017-07-14T06:32:57.017Z,15.8
2017-07-14T06:34:15.722Z,16
2017-07-14T06:35:34.385Z,16.3
2017-07-14T06:36:53.077Z,16.5
2017-07-14T06:38:11.751Z,16.6
2017-07-14T06:39:30.436Z,16.8
2017-07-14T06:40:49.152Z,17
2017-07-14T06:42:07.866Z,17
2017-07-14T06:43:26.562Z,16.9
2017-07-14T06:44:45.287Z,16.8
2017-07-14T06:46:04.020Z,16.8
2017-07-14T06:47:22.691Z,16.8
2017-07-14T06:48:41.410Z,16.6
2017-07-14T06:50:00.102Z,16.5
2017-07-14T06:51:18.777Z,16.5
2017-07-14T06:52:37.471Z,16.8
2017-07-14T06:53:56.139Z,17.3
2017-07-14T06:55:14.821Z,17.8
2017-07-14T06:56:33.488Z,18
2017-07-14T06:57:52.185Z,18.2
2017-07-14T06:59:10.852Z,18.2
2017-07-14T07:00:29.593Z,18
2017-07-14T07:01:48.314Z,17.6
2017-07-14T07:03:07.016Z,17.1
2017-07-14T07:04:25.742Z,16.7
2017-07-14T07:05:44.430Z,16.4
2017-07-14T07:07:03.101Z,16.2
2017-07-14T07:08:21.783Z,16.3
2017-07-14T07:09:40.448Z,16.5
2017-07-14T07:10:59.139Z,16.7
2017-07-14T07:12:17.815Z,16.8
2017-07-14T07:13:36.485Z,16.9
2017-07-14T07:14:55.204Z,17
2017-07-14T07:16:13.921Z,17.2
2017-07-14T07:17:32.637Z,17.3
2017-07-14T07:18:51.345Z,17.7
2017-07-14T07:20:10.007Z,18.3
2017-07-14T07:21:28.739Z,19.1
2017-07-14T07:22:47.477Z,19.6
2017-07-14T07:24:06.170Z,19.8
2017-07-14T07:25:24.834Z,20
2017-07-14T07:26:43.524Z,20
2017-07-14T07:28:02.216Z,19.8
2017-07-14T07:29:20.908Z,19.6
2017-07-14T07:30:39.615Z,19.6
2017-07-14T07:31:58.302Z,19.7
2017-07-14T07:33:16.971Z,19.7
2017-07-14T07:34:35.638Z,19.6
2017-07-14T07:35:54.309Z,19.2
2017-07-14T07:37:13.003Z,18.8
2017-07-14T07:38:31.711Z,18.7
2017-07-14T07:39:50.383Z,18.6
2017-07-14T07:41:09.071Z,18.6
2017-07-14T07:42:27.758Z,18.6
2017-07-14T07:43:46.419Z,18.6
2017-07-14T07:45:05.080Z,18.4
2017-07-14T07:46:23.755Z,18.1
2017-07-14T07:47:42.460Z,17.8
2017-07-14T07:49:01.159Z,17.6
2017-07-14T07:50:19.865Z,17.3
2017-07-14T07:51:38.562Z,17.2
2017-07-14T07:52:57.242Z,17.4
2017-07-14T07:54:15.906Z,17.5
2017-07-14T07:55:34.583Z,17.7
2017-07-14T07:56:53.313Z,17.7
2017-07-14T07:58:11.997Z,17.9
2017-07-14T07:59:30.700Z,18
2017-07-14T08:00:49.381Z,18.2
2017-07-14T08:02:08.045Z,18.3
2017-07-14T08:03:26.775Z,18.3
2017-07-14T08:04:45.437Z,18.4
2017-07-14T08:06:04.156Z,18.6
2017-07-14T08:07:22.865Z,18.8
2017-07-14T08:08:41.583Z,19
2017-07-14T08:10:00.278Z,19.1
2017-07-14T08:11:19.005Z,19.3
2017-07-14T08:12:37.669Z,19.4
2017-07-14T08:13:56.380Z,19.5
2017-07-14T08:15:15.054Z,19.7
2017-07-14T08:16:33.726Z,19.6
2017-07-14T08:17:52.423Z,19.4
2017-07-14T08:19:11.102Z,19.3
2017-07-14T08:20:29.768Z,19.4
2017-07-14T08:21:48.429Z,19.3
2017-07-14T08:23:07.117Z,19.1
2017-07-14T08:24:25.845Z,19
2017-07-14T08:25:44.566Z,19
2017-07-14T08:27:03.253Z,19.1
2017-07-14T08:28:21.978Z,19.5
2017-07-14T08:29:40.689Z,19.8
2017-07-14T08:30:59.372Z,20
2017-07-14T08:32:18.040Z,20.1
2017-07-14T08:33:36.710Z,20.1
2017-07-14T08:34:55.398Z,20
2017-07-14T08:36:14.094Z,19.8
2017-07-14T08:37:32.761Z,19.6
2017-07-14T08:38:51.437Z,19.4
2017-07-14T08:40:10.110Z,19.3
2017-07-14T08:41:28.794Z,19.2
2017-07-14T08:42:47.470Z,19
2017-07-14T08:44:06.143Z,18.8
2017-07-14T08:45:24.870Z,18.8
2017-07-14T08:46:43.570Z,18.9
2017-07-14T08:48:02.240Z,18.9
2017-07-14T08:49:20.956Z,19
2017-07-14T08:50:39.695Z,19.1
2017-07-14T08:51:58.364Z,19.4
2017-07-14T08:53:17.036Z,19.5
2017-07-14T08:54:35.737Z,19.4
2017-07-14T08:55:54.423Z,19.6
2017-07-14T08:57:13.095Z,19.8
2017-07-14T08:58:31.826Z,19.9
2017-07-14T08:59:50.546Z,20.2
2017-07-14T09:01:09.221Z,20.5
2017-07-14T09:02:27.890Z,20.7
2017-07-14T09:03:46.610Z,20.9
2017-07-14T09:05:05.325Z,20.8
2017-07-14T09:06:24.070Z,20.7
2017-07-14T09:07:42.772Z,21
2017-07-14T09:09:01.441Z,21.2
2017-07-14T09:10:20.143Z,21.1
2017-07-14T09:11:38.836Z,21.1
2017-07-14T09:12:57.501Z,21.1
2017-07-14T09:14:16.187Z,21.7
2017-07-14T09:15:34.854Z,22
2017-07-14T09:16:53.589Z,22.2
2017-07-14T09:18:12.310Z,22.6
2017-07-14T09:19:30.970Z,22.8
2017-07-14T09:20:49.636Z,23
2017-07-14T09:22:08.339Z,22.7
2017-07-14T09:23:27.057Z,22.1
2017-07-14T09:24:45.721Z,21.4
2017-07-14T09:26:04.384Z,20.9
2017-07-14T09:27:23.067Z,20.6
2017-07-14T09:28:41.740Z,20.3
2017-07-14T09:30:00.425Z,20
2017-07-14T09:31:19.154Z,19.7
2017-07-14T09:32:37.889Z,19.6
2017-07-14T09:33:56.569Z,19.5
2017-07-14T09:35:15.233Z,19.3
2017-07-14T09:36:33.934Z,19.3
2017-07-14T09:37:52.608Z,19.6
2017-07-14T09:39:11.302Z,20.3
2017-07-14T09:40:29.980Z,21
2017-07-14T09:41:48.691Z,21.6
2017-07-14T09:43:07.396Z,22.1
2017-07-14T09:44:26.109Z,22.5
2017-07-14T09:45:44.801Z,22.9
2017-07-14T09:47:03.470Z,23.2
2017-07-14T09:48:22.140Z,23.3
2017-07-14T09:49:40.802Z,23.4
2017-07-14T09:50:59.523Z,23.3
2017-07-14T09:52:18.217Z,23.1
2017-07-14T09:53:36.896Z,23.2
2017-07-14T09:54:55.576Z,23.1
2017-07-14T09:56:14.295Z,23
2017-07-14T09:57:32.966Z,23
2017-07-14T09:58:51.636Z,23
2017-07-14T10:00:10.329Z,22.7
2017-07-14T10:01:29.062Z,22.2
2017-07-14T10:02:47.730Z,21.9
2017-07-14T10:04:06.392Z,21.7
2017-07-14T10:05:25.061Z,21.5
2017-07-14T10:06:43.724Z,21.4
2017-07-14T10:08:02.432Z,21.4
2017-07-14T10:09:21.104Z,21.3
2017-07-14T10:10:39.771Z,21.2
2017-07-14T10:11:58.429Z,21.1
2017-07-14T10:13:17.100Z,21.1
2017-07-14T10:14:35.774Z,21.3
2017-07-14T10:15:54.461Z,21.2
2017-07-14T10:17:13.152Z,21.1
2017-07-14T10:18:31.820Z,21
2017-07-14T10:19:50.502Z,21
2017-07-14T10:21:09.178Z,21
2017-07-14T10:22:27.891Z,21.1
2017-07-14T10:23:46.571Z,21.3
2017-07-14T10:25:05.241Z,21.3
2017-07-14T10:26:23.976Z,21.6
2017-07-14T10:27:42.645Z,22.1
2017-07-14T10:29:01.315Z,22.9
2017-07-14T10:30:20.039Z,23.6
2017-07-14T10:31:38.708Z,23.9
2017-07-14T10:32:57.454Z,24.3
2017-07-14T10:34:16.141Z,24.1
2017-07-14T10:35:34.837Z,23.9
2017-07-14T10:36:53.496Z,23.5
2017-07-14T10:38:12.162Z,23.2
2017-07-14T10:39:30.822Z,23.1
2017-07-14T10:40:49.556Z,23.5
2017-07-14T10:42:08.213Z,23.7
2017-07-14T10:43:26.877Z,23.9
2017-07-14T10:44:45.572Z,24
2017-07-14T10:46:04.276Z,24.5
2017-07-14T10:47:22.942Z,24.8
2017-07-14T10:48:41.628Z,24.9
2017-07-14T10:50:00.343Z,24.9
2017-07-14T10:51:19.053Z,25
2017-07-14T10:52:37.718Z,25.4
2017-07-14T10:53:56.381Z,25.1
2017-07-14T10:55:15.088Z,25.1
2017-07-14T10:56:33.800Z,24.8
2017-07-14T10:57:52.485Z,24.3
2017-07-14T10:59:11.148Z,23.6
2017-07-14T11:00:29.865Z,23.1
2017-07-14T11:01:48.576Z,22.6
2017-07-14T11:03:07.244Z,22.3
2017-07-14T11:04:25.919Z,22.2
2017-07-14T11:05:44.637Z,22
2017-07-14T11:07:03.308Z,21.5
2017-07-14T11:08:22.026Z,21.3
2017-07-14T11:09:40.697Z,21.1
2017-07-14T11:10:59.360Z,20.9
2017-07-14T11:12:18.035Z,20.6
2017-07-14T11:13:36.701Z,20.4
2017-07-14T11:14:55.367Z,20.3
2017-07-14T11:16:14.061Z,20.3
2017-07-14T11:17:32.744Z,20.2
2017-07-14T11:18:51.425Z,20.1
2017-07-14T11:20:10.120Z,20.1
2017-07-14T11:21:28.832Z,20.1
2017-07-14T11:22:47.506Z,19.9
2017-07-14T11:24:06.237Z,19.7
2017-07-14T11:25:24.943Z,19.6
2017-07-14T11:26:43.609Z,19.5
2017-07-14T11:28:02.306Z,19.4
2017-07-14T11:29:21.009Z,19.4
2017-07-14T11:30:39.695Z,19.3
2017-07-14T11:31:58.358Z,19.2
2017-07-14T11:33:17.076Z,19.2
2017-07-14T11:34:35.757Z,19.2
2017-07-14T11:35:54.488Z,19.3
2017-07-14T11:37:13.159Z,19.3
2017-07-14T11:38:31.849Z,19.3
2017-07-14T11:39:50.570Z,19.4
2017-07-14T11:41:09.237Z,19.4
2017-07-14T11:42:27.935Z,19.3
2017-07-14T11:43:46.606Z,19.3
2017-07-14T11:45:05.315Z,19.2
2017-07-14T11:46:24.009Z,19.3
2017-07-14T11:47:42.716Z,19.2
2017-07-14T11:49:01.423Z,19.4
2017-07-14T11:50:20.091Z,19.6
2017-07-14T11:51:38.835Z,20
2017-07-14T11:52:57.524Z,20.3
2017-07-14T11:54:16.193Z,20.5
2017-07-14T11:55:34.854Z,20.8
2017-07-14T11:56:53.569Z,21.2
2017-07-14T11:58:12.242Z,21.7
2017-07-14T11:59:31.217Z,22.3
2017-07-14T12:00:49.884Z,22.8
2017-07-14T12:02:08.588Z,23.2
2017-07-14T12:03:27.306Z,23.6
2017-07-14T12:04:46.001Z,23.7
2017-07-14T12:06:04.672Z,23.9
2017-07-14T12:07:23.366Z,24
2017-07-14T12:08:42.028Z,23.9
2017-07-14T12:10:00.744Z,23.9
2017-07-14T12:11:19.423Z,23.7
2017-07-14T12:12:38.131Z,23.5
2017-07-14T12:13:56.790Z,23.5
2017-07-14T12:15:15.470Z,23.3
2017-07-14T12:16:34.153Z,23
2017-07-14T12:17:52.866Z,22.8
2017-07-14T12:19:11.576Z,22.6
2017-07-14T12:20:30.270Z,22.4
2017-07-14T12:21:49.018Z,22.1
2017-07-14T12:23:07.747Z,21.9
2017-07-14T12:24:26.461Z,21.6
2017-07-14T12:25:45.178Z,21.4
2017-07-14T12:27:03.872Z,21.7
2017-07-14T12:28:22.587Z,21.9
2017-07-14T12:29:41.298Z,21.9
2017-07-14T12:31:00.045Z,21.8
2017-07-14T12:32:18.711Z,21.4
2017-07-14T12:33:37.474Z,21.2
2017-07-14T12:34:56.162Z,20.8
2017-07-14T12:36:14.851Z,20.5
2017-07-14T12:37:33.554Z,20.3
2017-07-14T12:38:52.241Z,20.1
2017-07-14T12:40:10.905Z,19.9
2017-07-14T12:41:29.566Z,19.7
2017-07-14T12:42:48.284Z,19.4
2017-07-14T12:44:06.949Z,19.2
2017-07-14T12:45:25.611Z,19
2017-07-14T12:46:44.342Z,18.8
2017-07-14T12:48:03.007Z,18.6
2017-07-14T12:49:21.668Z,18.4
2017-07-14T12:50:40.337Z,18.4
2017-07-14T12:51:59.096Z,18.4
2017-07-14T12:53:17.762Z,18.4
2017-07-14T12:54:36.459Z,18.4
2017-07-14T12:55:55.184Z,18.5
2017-07-14T12:57:13.879Z,18.5
2017-07-14T12:58:32.566Z,18.5
2017-07-14T12:59:51.236Z,18.5
2017-07-14T13:01:09.902Z,18.5
2017-07-14T13:02:28.588Z,18.5
2017-07-14T13:03:47.309Z,18.6
2017-07-14T13:05:05.989Z,18.8
2017-07-14T13:06:24.710Z,18.9
2017-07-14T13:07:43.382Z,18.9
2017-07-14T13:09:02.048Z,18.8
2017-07-14T13:10:20.726Z,18.8
2017-07-14T13:11:39.389Z,18.5
2017-07-14T13:12:58.076Z,18.3
2017-07-14T13:14:16.786Z,18.3
2017-07-14T13:15:35.452Z,18.2
2017-07-14T13:16:54.136Z,18.1
2017-07-14T13:18:12.809Z,18
2017-07-14T13:19:31.480Z,18
2017-07-14T13:20:50.156Z,18
2017-07-14T13:22:08.846Z,17.9
2017-07-14T13:23:27.574Z,18
2017-07-14T13:24:46.262Z,18.1
2017-07-14T13:26:04.931Z,18.1
2017-07-14T13:27:23.598Z,18.2
2017-07-14T13:28:42.340Z,18.3
2017-07-14T13:30:01.008Z,18.3
2017-07-14T13:31:19.674Z,18.3
2017-07-14T13:32:38.378Z,18.2
2017-07-14T13:33:57.061Z,18.2
2017-07-14T13:35:15.731Z,18
2017-07-14T13:36:34.402Z,17.9
2017-07-14T13:37:53.111Z,17.9
2017-07-14T13:39:11.834Z,18
2017-07-14T13:40:30.554Z,18
2017-07-14T13:41:49.267Z,18
2017-07-14T13:43:07.934Z,18.2
2017-07-14T13:44:26.619Z,18.4
2017-07-14T13:45:45.320Z,18.6
2017-07-14T13:47:04.018Z,18.8
2017-07-14T13:48:22.690Z,19
2017-07-14T13:49:41.395Z,19.1
2017-07-14T13:51:00.062Z,19.3
2017-07-14T13:52:18.784Z,19.8
2017-07-14T13:53:37.443Z,20.3
2017-07-14T13:54:56.116Z,20.5
2017-07-14T13:56:14.781Z,20.7
2017-07-14T13:57:33.468Z,20.7
2017-07-14T13:58:52.187Z,20.6
2017-07-14T14:00:10.895Z,20.4
2017-07-14T14:01:29.599Z,20.4
2017-07-14T14:02:48.275Z,20.4
2017-07-14T14:04:06.942Z,20.4
2017-07-14T14:05:25.611Z,20.3
2017-07-14T14:06:44.331Z,20.2
2017-07-14T14:08:02.998Z,20
2017-07-14T14:09:21.662Z,19.9
2017-07-14T14:10:40.353Z,19.8
2017-07-14T14:11:59.063Z,19.8
2017-07-14T14:13:17.735Z,19.9
2017-07-14T14:14:36.402Z,19.9
2017-07-14T14:15:55.102Z,20
2017-07-14T14:17:13.801Z,20.1
2017-07-14T14:18:32.461Z,20.2
2017-07-14T14:19:51.145Z,20.1
2017-07-14T14:21:09.829Z,20.1
2017-07-14T14:22:28.510Z,20.2
2017-07-14T14:23:47.228Z,20.3
2017-07-14T14:25:05.948Z,20.5
2017-07-14T14:26:24.638Z,20.7
2017-07-14T14:27:43.304Z,20.9
2017-07-14T14:29:01.979Z,21.1
2017-07-14T14:30:20.645Z,21.4
2017-07-14T14:31:39.331Z,21.7
2017-07-14T14:32:58.022Z,22.2
2017-07-14T14:34:16.691Z,23
2017-07-14T14:35:35.363Z,23.8
2017-07-14T14:36:54.073Z,24.6
2017-07-14T14:38:12.800Z,25.4
2017-07-14T14:39:31.503Z,26.7
2017-07-14T14:40:50.192Z,27.4
2017-07-14T14:42:08.882Z,28
2017-07-14T14:43:27.601Z,28.6
2017-07-14T14:44:46.320Z,29
2017-07-14T14:46:04.985Z,29.5
2017-07-14T14:47:23.670Z,29.6
2017-07-14T14:48:42.396Z,29.5
2017-07-14T14:50:01.058Z,29.1
2017-07-14T14:51:19.753Z,28.4
2017-07-14T14:52:38.444Z,27.8
2017-07-14T14:53:57.107Z,27.3
2017-07-14T14:55:15.795Z,26.6
2017-07-14T14:56:34.465Z,26.2
2017-07-14T14:57:53.162Z,25.8
2017-07-14T14:59:11.819Z,25.3
2017-07-14T15:00:30.509Z,25.1
2017-07-14T15:01:49.197Z,24.6
2017-07-14T15:03:07.913Z,24.3
2017-07-14T15:04:26.617Z,24.1
2017-07-14T15:05:45.312Z,23.8
2017-07-14T15:07:04.045Z,23.8
2017-07-14T15:08:22.731Z,23.7
2017-07-14T15:09:41.447Z,23.5
2017-07-14T15:11:00.114Z,23.3
2017-07-14T15:12:18.792Z,23
2017-07-14T15:13:37.481Z,23
2017-07-14T15:14:56.171Z,23
2017-07-14T15:16:14.895Z,23.5
2017-07-14T15:17:33.556Z,23.6
2017-07-14T15:18:52.237Z,23.6
2017-07-14T15:20:10.905Z,23.6
2017-07-14T15:21:29.571Z,23.5
2017-07-14T15:22:48.236Z,22.9
2017-07-14T15:24:06.946Z,22.3
2017-07-14T15:25:25.614Z,22
2017-07-14T15:26:44.330Z,21.7
2017-07-14T15:28:02.990Z,21.3
2017-07-14T15:29:21.718Z,21.2
2017-07-14T15:30:40.394Z,21.2
2017-07-14T15:31:59.132Z,21.4
2017-07-14T15:33:17.801Z,21.7
2017-07-14T15:34:36.527Z,22
2017-07-14T15:35:55.240Z,22
2017-07-14T15:37:13.941Z,22
2017-07-14T15:38:32.647Z,22
2017-07-14T15:39:51.331Z,22.1
2017-07-14T15:41:09.992Z,21.8
2017-07-14T15:42:28.692Z,21.8
2017-07-14T15:43:47.390Z,21.9
2017-07-14T15:45:06.052Z,22.3
2017-07-14T15:46:24.718Z,22.7
2017-07-14T15:47:43.397Z,22.8
2017-07-14T15:49:02.068Z,22.4
2017-07-14T15:50:20.747Z,22.4
2017-07-14T15:51:39.412Z,22.4
2017-07-14T15:52:58.131Z,22.2
2017-07-14T15:54:16.845Z,22.2
2017-07-14T15:55:35.565Z,22.1
2017-07-14T15:56:54.235Z,22
2017-07-14T15:58:12.903Z,22
2017-07-14T15:59:31.566Z,21.9
2017-07-14T16:00:50.262Z,21.7
2017-07-14T16:02:08.951Z,21.6
2017-07-14T16:03:27.629Z,21.4
2017-07-14T16:04:46.334Z,21
2017-07-14T16:06:05.001Z,21.2
2017-07-14T16:07:23.668Z,21.3
2017-07-14T16:08:42.422Z,21.4
2017-07-14T16:10:01.127Z,21.4
2017-07-14T16:11:19.837Z,21.5
2017-07-14T16:12:38.557Z,21.7
2017-07-14T16:13:57.228Z,21.7
2017-07-14T16:15:15.922Z,21.8
2017-07-14T16:16:34.629Z,21.7
2017-07-14T16:17:53.306Z,21.5
2017-07-14T16:19:11.990Z,21.3
2017-07-14T16:20:30.686Z,20.8
2017-07-14T16:21:49.371Z,20.8
2017-07-14T16:23:08.075Z,20.9
2017-07-14T16:24:26.738Z,21.1
2017-07-14T16:25:45.432Z,21.6
2017-07-14T16:27:04.124Z,21.8
2017-07-14T16:28:22.798Z,21.9
2017-07-14T16:29:41.469Z,22.2
2017-07-14T16:31:00.132Z,22.3
2017-07-14T16:32:18.827Z,22.1
2017-07-14T16:33:37.497Z,21.7
2017-07-14T16:34:56.189Z,21.4
2017-07-14T16:36:14.894Z,21.2
2017-07-14T16:37:33.578Z,21
2017-07-14T16:38:52.244Z,21
2017-07-14T16:40:10.906Z,21
2017-07-14T16:41:29.572Z,21
2017-07-14T16:42:48.251Z,21
2017-07-14T16:44:06.915Z,20.8
2017-07-14T16:45:25.587Z,20.7
2017-07-14T16:46:44.255Z,20.7
2017-07-14T16:48:02.972Z,20.8
2017-07-14T16:49:21.669Z,20.7
2017-07-14T16:50:40.351Z,20.6
2017-07-14T16:51:59.046Z,20.4
2017-07-14T16:53:17.730Z,20.3
2017-07-14T16:54:36.395Z,20.3
2017-07-14T16:55:55.119Z,20.3
2017-07-14T16:57:13.823Z,20.2
2017-07-14T16:58:32.554Z,20.2
2017-07-14T16:59:51.267Z,20.1
2017-07-14T17:01:09.933Z,20.1
2017-07-14T17:02:28.602Z,20
2017-07-14T17:03:47.339Z,20.1
2017-07-14T17:05:06.015Z,20.1
2017-07-14T17:06:24.708Z,19.9
2017-07-14T17:07:43.373Z,19.9
2017-07-14T17:09:02.054Z,19.9
2017-07-14T17:10:20.718Z,20.2
2017-07-14T17:11:39.385Z,20.7
2017-07-14T17:12:58.057Z,21
2017-07-14T17:14:16.737Z,21
2017-07-14T17:15:35.429Z,21.3
2017-07-14T17:16:54.122Z,21.3
2017-07-14T17:18:12.784Z,21.9
2017-07-14T17:19:31.500Z,22.1
2017-07-14T17:20:50.167Z,21.8
2017-07-14T17:22:08.925Z,21.7
2017-07-14T17:23:27.597Z,21.4
2017-07-14T17:24:46.330Z,21.2
2017-07-14T17:26:05.016Z,21
2017-07-14T17:27:23.684Z,20.8
2017-07-14T17:28:42.408Z,20.7
2017-07-14T17:30:01.143Z,20.6
2017-07-14T17:31:19.815Z,20.5
2017-07-14T17:32:38.478Z,20.2
2017-07-14T17:33:57.147Z,19.9
2017-07-14T17:35:15.832Z,19.6
2017-07-14T17:36:34.494Z,19.4
2017-07-14T17:37:53.167Z,19.5
2017-07-14T17:39:11.855Z,19.6
2017-07-14T17:40:30.584Z,19.8
2017-07-14T17:41:49.301Z,20.1
2017-07-14T17:43:07.961Z,20.2
2017-07-14T17:44:26.629Z,20.1
2017-07-14T17:45:45.332Z,20.1